createdAt,value
2023-02-04T00:01:38.493Z,5.20
2023-02-04T00:08:12.074Z,5.30
2023-02-04T00:14:13.830Z,5.40
2023-02-04T00:20:15.667Z,5.50
2023-02-04T00:26:18.062Z,5.50
2023-02-04T00:32:19.925Z,5.60
2023-02-04T00:38:22.973Z,5.50
2023-02-04T00:44:24.737Z,5.30
2023-02-04T00:50:26.575Z,5.10
2023-02-04T00:56:28.285Z,5.10
2023-02-04T01:02:30.005Z,5.00
2023-02-04T01:08:32.430Z,4.90
2023-02-04T01:14:34.243Z,4.90
2023-02-04T01:20:36.028Z,4.90
2023-02-04T01:26:37.818Z,4.90
2023-02-04T01:32:39.667Z,4.80
2023-02-04T01:38:42.678Z,4.60
2023-02-04T01:44:44.531Z,4.70
2023-02-04T01:50:51.723Z,4.70
2023-02-04T01:56:55.472Z,4.60
2023-02-04T02:03:00.260Z,4.70
2023-02-04T02:09:02.778Z,4.70
2023-02-04T02:15:06.171Z,4.80
2023-02-04T02:21:11.957Z,4.80
2023-02-04T02:27:13.752Z,4.80
2023-02-04T02:33:19.066Z,4.80
2023-02-04T02:39:22.057Z,4.70
2023-02-04T02:45:27.544Z,4.70
2023-02-04T02:51:29.383Z,4.60
2023-02-04T02:57:32.285Z,4.60
2023-02-04T03:03:44.372Z,4.60
2023-02-04T03:09:49.655Z,4.40
2023-02-04T03:15:52.998Z,3.60
2023-02-04T03:22:00.010Z,3.10
2023-02-04T03:28:02.513Z,2.90
2023-02-04T03:41:01.752Z,2.80
2023-02-04T03:47:03.813Z,2.80
2023-02-04T03:53:06.392Z,2.80
2023-02-04T03:59:09.134Z,2.80
2023-02-04T04:05:11.568Z,2.80
2023-02-04T04:11:37.972Z,2.80
2023-02-04T04:17:47.583Z,2.70
2023-02-04T04:24:04.290Z,2.70
2023-02-04T04:30:36.632Z,2.60
2023-02-04T04:37:10.390Z,2.60
2023-02-04T04:43:23.116Z,2.50
2023-02-04T04:49:38.987Z,2.40
2023-02-04T04:56:00.522Z,2.30
2023-02-04T05:02:02.834Z,2.40
2023-02-04T05:08:10.000Z,2.30
2023-02-04T05:14:29.276Z,2.30
2023-02-04T05:20:35.594Z,2.00
2023-02-04T05:26:47.604Z,1.90
2023-02-04T05:32:50.087Z,1.60
2023-02-04T05:38:58.028Z,1.40
2023-02-04T05:45:02.377Z,1.00
2023-02-04T05:51:04.644Z,0.90
2023-02-04T05:57:17.285Z,0.70
2023-02-04T06:03:22.197Z,0.50
2023-02-04T06:09:30.619Z,0.30
2023-02-04T06:15:37.747Z,0.10
2023-02-04T06:21:45.056Z,-0.10
2023-02-04T06:27:50.322Z,-0.20
2023-02-04T06:33:54.852Z,-0.20
2023-02-04T06:39:57.597Z,-0.10
2023-02-04T06:45:59.740Z,-0.20
2023-02-04T06:52:01.532Z,-0.20
2023-02-04T06:58:03.394Z,-0.40
2023-02-04T07:04:05.220Z,-0.50
2023-02-04T07:10:07.085Z,-0.60
2023-02-04T07:16:08.950Z,-0.50
2023-02-04T07:22:10.638Z,-0.50
2023-02-04T07:28:12.492Z,-0.30
2023-02-04T07:34:14.396Z,-0.20
2023-02-04T07:40:16.369Z,-0.10
2023-02-04T07:46:18.430Z,0.10
2023-02-04T07:52:20.166Z,0.40
2023-02-04T07:58:22.808Z,0.70
2023-02-04T08:04:24.527Z,1.00
2023-02-04T08:10:26.207Z,1.10
2023-02-04T08:16:28.371Z,1.50
2023-02-04T08:22:31.119Z,1.60
2023-02-04T08:28:32.807Z,1.80
2023-02-04T08:34:34.486Z,1.70
2023-02-04T08:40:36.190Z,1.70
2023-02-04T08:46:37.935Z,1.90
2023-02-04T08:52:39.852Z,2.30
2023-02-04T08:58:41.542Z,2.40
2023-02-04T09:04:43.285Z,2.30
2023-02-04T09:10:44.978Z,2.60
2023-02-04T09:16:48.985Z,2.90
2023-02-04T09:22:50.716Z,3.50
2023-02-04T09:28:52.517Z,4.30
2023-02-04T09:34:54.230Z,4.90
2023-02-04T09:41:02.974Z,5.00
2023-02-04T09:47:04.754Z,4.90
2023-02-04T09:53:07.703Z,4.80
2023-02-04T09:59:18.209Z,4.40
2023-02-04T10:05:29.070Z,4.50
2023-02-04T10:11:35.248Z,4.30
2023-02-04T10:17:36.983Z,4.80
2023-02-04T10:23:39.075Z,4.80
2023-02-04T10:29:42.223Z,4.90
2023-02-04T10:35:49.536Z,4.80
2023-02-04T10:41:56.795Z,4.60
2023-02-04T10:47:58.483Z,4.50
2023-02-04T10:54:18.749Z,4.70
2023-02-04T11:00:25.464Z,4.70
2023-02-04T11:06:27.283Z,4.90
2023-02-04T11:12:42.155Z,5.30
2023-02-04T11:18:50.094Z,5.70
2023-02-04T11:24:51.944Z,5.40
2023-02-04T11:31:12.804Z,5.60
2023-02-04T11:37:35.617Z,5.60
2023-02-04T11:43:37.549Z,5.90
2023-02-04T11:49:39.304Z,6.50
2023-02-04T11:55:47.542Z,6.70
2023-02-04T12:01:49.652Z,6.70
2023-02-04T12:07:51.410Z,7.10
2023-02-04T12:13:56.376Z,7.40
2023-02-04T12:19:58.154Z,7.50
2023-02-04T12:26:00.185Z,7.20
2023-02-04T12:32:01.932Z,6.90
2023-02-04T12:38:03.960Z,7.10
2023-02-04T12:44:05.718Z,7.50
2023-02-04T12:50:08.485Z,7.10
2023-02-04T12:56:10.253Z,6.80
2023-02-04T13:02:12.252Z,7.10
2023-02-04T13:08:14.059Z,7.50
2023-02-04T13:14:15.773Z,8.10
2023-02-04T13:20:17.819Z,8.40
2023-02-04T13:26:19.580Z,8.40
2023-02-04T13:32:24.437Z,8.50
2023-02-04T13:38:26.475Z,8.60
2023-02-04T13:44:28.253Z,8.60
2023-02-04T13:50:30.300Z,8.10
2023-02-04T13:56:32.930Z,7.90
2023-02-04T14:02:35.088Z,8.00
2023-02-04T14:08:37.083Z,7.90
2023-02-04T14:14:38.792Z,7.80
2023-02-04T14:20:40.552Z,7.60
2023-02-04T14:26:42.309Z,7.70
2023-02-04T14:32:44.187Z,7.30
2023-02-04T14:38:45.910Z,7.10
2023-02-04T14:44:47.695Z,6.80
2023-02-04T14:50:49.462Z,6.50
2023-02-04T14:56:51.291Z,6.20
2023-02-04T15:02:53.347Z,6.20
2023-02-04T15:08:55.390Z,6.20
2023-02-04T15:14:57.238Z,6.10
2023-02-04T15:20:58.934Z,5.90
2023-02-04T15:27:00.773Z,5.90
2023-02-04T15:33:02.625Z,5.70
2023-02-04T15:39:04.400Z,5.40
2023-02-04T15:45:06.963Z,4.90
2023-02-04T15:51:08.703Z,4.60
2023-02-04T15:57:10.719Z,4.10
2023-02-04T16:03:12.482Z,3.70
2023-02-04T16:09:14.200Z,3.20
2023-02-04T16:15:16.068Z,2.80
2023-02-04T16:21:17.808Z,2.30
2023-02-04T16:27:19.931Z,1.90
2023-02-04T16:33:21.737Z,1.60
2023-02-04T16:39:24.357Z,1.30
2023-02-04T16:45:26.176Z,1.00
2023-02-04T16:51:29.026Z,0.90
2023-02-04T16:57:30.833Z,0.70
2023-02-04T17:03:32.636Z,0.60
2023-02-04T17:09:34.402Z,0.40
2023-02-04T17:15:36.229Z,0.40
2023-02-04T17:21:39.212Z,0.50
2023-02-04T17:27:40.957Z,0.60
2023-02-04T17:33:42.961Z,0.80
2023-02-04T17:39:44.724Z,0.80
2023-02-04T17:45:46.616Z,0.80
2023-02-04T17:51:48.372Z,0.90
2023-02-04T17:57:51.271Z,0.90
2023-02-04T18:03:53.051Z,0.80
2023-02-04T18:10:07.594Z,0.70
2023-02-04T18:16:25.173Z,0.40
2023-02-04T18:22:28.507Z,0.10
2023-02-04T18:28:34.512Z,-0.20
2023-02-04T18:34:42.955Z,-0.30
2023-02-04T18:40:44.666Z,-0.50
2023-02-04T18:46:48.461Z,-0.60
2023-02-04T18:52:50.179Z,-0.70
2023-02-04T18:58:52.169Z,-0.80
2023-02-04T19:05:12.138Z,-0.80
2023-02-04T19:11:33.472Z,-0.90
2023-02-04T19:17:36.275Z,-1.00
2023-02-04T19:23:38.078Z,-0.90
2023-02-04T19:29:41.472Z,-0.90
2023-02-04T19:35:45.144Z,-0.90
2023-02-04T19:41:49.124Z,-0.90
2023-02-04T19:47:53.197Z,-1.00
2023-02-04T19:54:13.750Z,-1.10
2023-02-04T20:00:34.468Z,-1.20
2023-02-04T20:06:36.323Z,-1.30
2023-02-04T20:12:40.725Z,-1.40
2023-02-04T20:18:42.478Z,-1.50
2023-02-04T20:24:46.704Z,-1.60
2023-02-04T20:30:50.244Z,-1.70
2023-02-04T20:36:52.380Z,-1.80
2023-02-04T20:43:01.591Z,-1.80
2023-02-04T20:49:20.960Z,-1.80
2023-02-04T20:55:22.692Z,-1.90
2023-02-04T21:01:34.497Z,-2.00
2023-02-04T21:07:36.270Z,-2.00
2023-02-04T21:13:38.750Z,-2.00
2023-02-04T21:19:40.675Z,-2.00
2023-02-04T21:25:42.386Z,-2.00
2023-02-04T21:31:46.428Z,-2.00
2023-02-04T21:37:48.147Z,-1.90
2023-02-04T21:43:50.641Z,-1.90
2023-02-04T21:49:52.442Z,-1.90
2023-02-04T21:55:54.223Z,-2.00
2023-02-04T22:01:56.182Z,-2.00
2023-02-04T22:07:59.752Z,-2.10
2023-02-04T22:14:01.657Z,-2.20
2023-02-04T22:20:04.220Z,-2.30
2023-02-04T22:26:06.078Z,-2.40
2023-02-04T22:32:07.879Z,-2.30
2023-02-04T22:38:09.690Z,-2.30
2023-02-04T22:44:11.494Z,-2.40
2023-02-04T22:50:13.217Z,-2.40
2023-02-04T22:56:15.221Z,-2.30
2023-02-04T23:02:18.452Z,-2.10
2023-02-04T23:08:20.608Z,-2.00
2023-02-04T23:14:22.328Z,-1.90
2023-02-04T23:20:24.251Z,-2.10
2023-02-04T23:26:26.237Z,-2.30
2023-02-04T23:32:28.693Z,-2.30
2023-02-04T23:38:31.221Z,-2.20
2023-02-04T23:44:33.098Z,-2.00
2023-02-04T23:50:34.813Z,-1.80
2023-02-04T23:56:36.612Z,-1.70
